Time;durP1;ratioP1;P1;durP2;ratioP2;P2;SDS_P1;SDS_P2;PMS_P1;PMS_P2;Temp;Humidity;BMP_temperature;BMP_pressure;BME280_temperature;BME280_humidity;BME280_pressure;Samples;Min_cycle;Max_cycle;Signal;HPM_P1;HPM_P2
2021/11/17 07:25:35;;;;;;;5.37;3.60;;;;;;;5.96;82.34;101383.28;6384955;27;20666;-74
2021/11/17 07:28:41;;;;;;;6.43;3.73;;;;;;;6.01;81.39;101391.75;6358853;28;20185;-75
2021/11/17 07:31:45;;;;;;;7.03;4.00;;;;;;;5.98;82.01;101385.84;6359197;28;20183;-74
2021/11/17 07:34:50;;;;;;;4.10;3.70;;;;;;;6.18;81.26;101390.69;6357951;28;20262;-75
2021/11/17 07:38:00;;;;;;;7.73;3.97;;;;;;;6.23;80.63;101393.72;6359232;28;20223;-75
2021/11/17 07:41:08;;;;;;;4.87;3.90;;;;;;;6.07;80.96;101382.94;6358913;28;20185;-75
2021/11/17 07:44:16;;;;;;;7.63;3.87;;;;;;;6.37;80.10;101385.88;6358503;28;20229;-75
2021/11/17 07:47:20;;;;;;;5.90;3.90;;;;;;;6.46;79.85;101379.38;6358583;28;20186;-75
2021/11/17 07:50:25;;;;;;;4.80;3.60;;;;;;;6.42;80.28;101378.88;6357555;28;20247;-75
2021/11/17 07:53:30;;;;;;;4.47;4.03;;;;;;;6.40;79.53;101374.66;6358422;28;20221;-75
2021/11/17 07:56:37;;;;;;;4.77;3.80;;;;;;;6.46;79.69;101373.97;6357388;28;20477;-75
2021/11/17 07:59:42;;;;;;;3.93;3.53;;;;;;;6.60;79.05;101384.06;6358680;28;20192;-75
2021/11/17 08:02:48;;;;;;;4.40;3.47;;;;;;;6.55;79.92;101372.91;6357275;28;20475;-75
2021/11/17 08:05:54;;;;;;;7.83;3.87;;;;;;;6.55;79.17;101389.19;6357964;28;20210;-75
2021/11/17 08:08:59;;;;;;;6.90;4.10;;;;;;;6.51;79.29;101385.09;6357523;28;20196;-75
2021/11/17 08:12:06;;;;;;;8.70;3.80;;;;;;;6.56;79.38;101375.44;6358209;28;20193;-75
2021/11/17 08:15:16;;;;;;;4.47;3.83;;;;;;;6.61;79.36;101383.03;6357211;28;20291;-75
2021/11/17 08:18:20;;;;;;;9.40;3.90;;;;;;;6.58;79.69;101377.94;6358452;28;20186;-75
2021/11/17 08:21:25;;;;;;;9.33;3.93;;;;;;;6.66;79.42;101358.91;6357541;28;20190;-75
2021/11/17 08:24:30;;;;;;;4.33;4.03;;;;;;;6.57;78.81;101354.59;6357559;28;20232;-75
2021/11/17 08:27:36;;;;;;;4.57;4.10;;;;;;;6.65;78.72;101358.06;6357870;28;20185;-75
2021/11/17 08:30:43;;;;;;;8.13;3.93;;;;;;;6.67;78.13;101338.94;6358071;28;20192;-75
2021/11/17 08:33:48;;;;;;;5.60;3.80;;;;;;;6.82;77.20;101343.41;6357606;28;20221;-75
2021/11/17 08:36:53;;;;;;;6.10;3.97;;;;;;;6.65;78.29;101341.00;6340051;28;20271;-75
2021/11/17 08:39:58;;;;;;;9.07;4.10;;;;;;;6.75;78.65;101325.31;6340092;28;20185;-75
2021/11/17 08:43:05;;;;;;;6.67;4.37;;;;;;;6.95;77.69;101329.22;6340800;28;20194;-76
2021/11/17 08:46:10;;;;;;;6.37;3.87;;;;;;;6.94;77.17;101319.41;6340652;28;20198;-75
2021/11/17 08:49:15;;;;;;;3.57;3.23;;;;;;;6.90;77.44;101328.94;6339195;28;20485;-75
2021/11/17 08:52:19;;;;;;;11.87;4.90;;;;;;;6.93;77.25;101323.16;6339596;28;20187;-78
2021/11/17 08:55:26;;;;;;;7.53;3.70;;;;;;;7.16;75.62;101318.56;6340420;28;20214;-75
2021/11/17 08:58:32;;;;;;;7.57;3.60;;;;;;;7.13;75.74;101318.91;6339046;28;20183;-75
2021/11/17 09:01:37;;;;;;;5.93;3.90;;;;;;;7.33;74.64;101316.50;6340052;28;20190;-75
2021/11/17 09:04:41;;;;;;;6.07;3.50;;;;;;;7.39;74.51;101324.78;6340255;28;20194;-76
2021/11/17 09:07:47;;;;;;;9.63;3.83;;;;;;;7.33;74.89;101321.94;6339966;28;20236;-75
2021/11/17 09:10:53;;;;;;;6.60;3.90;;;;;;;7.06;75.67;101317.94;6339005;28;20421;-75
2021/11/17 09:13:59;;;;;;;10.20;3.73;;;;;;;7.21;75.76;101309.84;6340214;28;20246;-75
2021/11/17 09:17:04;;;;;;;5.23;3.53;;;;;;;7.17;76.35;101308.50;6339498;28;20214;-75
2021/11/17 09:20:12;;;;;;;7.83;3.83;;;;;;;7.28;75.37;101300.78;6338681;28;20204;-75
2021/11/17 09:23:19;;;;;;;7.53;3.70;;;;;;;7.22;75.46;101296.09;6339694;28;20329;-75
2021/11/17 09:26:24;;;;;;;5.53;4.27;;;;;;;7.35;75.59;101288.16;6339705;28;20221;-75
2021/11/17 09:29:31;;;;;;;4.70;3.83;;;;;;;7.32;75.64;101274.09;6338558;28;20266;-75
2021/11/17 09:32:36;;;;;;;8.97;4.03;;;;;;;7.28;75.75;101270.94;6338299;28;20379;-75
2021/11/17 09:35:40;;;;;;;4.60;4.10;;;;;;;7.33;75.79;101271.22;6338269;28;20403;-75
2021/11/17 09:38:49;;;;;;;8.63;3.37;;;;;;;7.11;76.67;101277.56;6338187;28;20531;-75
2021/11/17 09:41:55;;;;;;;5.93;3.93;;;;;;;7.19;76.58;101263.06;6338151;28;20493;-75
2021/11/17 09:45:00;;;;;;;4.43;3.95;;;;;;;7.27;76.61;101261.09;6338897;28;20186;-75
2021/11/17 09:48:06;;;;;;;8.27;3.80;;;;;;;7.40;75.68;101255.03;6338342;28;20183;-75
2021/11/17 09:51:15;;;;;;;4.53;4.17;;;;;;;7.30;76.36;101266.16;6339087;28;20245;-75
2021/11/17 09:54:26;;;;;;;8.17;3.53;;;;;;;7.34;76.43;101245.78;6338774;28;20206;-75
2021/11/17 09:57:34;;;;;;;4.33;3.93;;;;;;;7.41;76.01;101249.41;6337957;28;20401;-74
2021/11/17 10:00:45;;;;;;;9.60;3.87;;;;;;;7.54;75.12;101241.47;6338974;28;20183;-75
2021/11/17 10:03:54;;;;;;;7.50;4.07;;;;;;;7.31;75.93;101235.28;6338984;28;20189;-74
2021/11/17 10:07:37;;;;;;;9.10;3.60;;;;;;;7.42;76.27;101236.69;6339035;28;20193;-75
2021/11/17 10:14:17;;;;;;;6.20;3.70;;;;;;;7.39;76.37;101227.06;6338700;28;20249;-75
2021/11/17 10:17:37;;;;;;;5.90;3.60;;;;;;;7.53;76.06;101220.75;6337241;28;20313;-75
2021/11/17 10:20:58;;;;;;;8.10;3.77;;;;;;;7.29;77.34;101210.16;6338347;28;20187;-75
2021/11/17 10:24:06;;;;;;;4.13;3.73;;;;;;;7.25;77.72;101214.31;6337634;28;20234;-75
2021/11/17 10:27:14;;;;;;;8.60;4.07;;;;;;;7.37;77.87;101212.81;6337944;28;20187;-75
2021/11/17 10:30:30;;;;;;;11.40;5.17;;;;;;;7.36;77.75;101205.72;6337715;28;20231;-74
2021/11/17 10:34:02;;;;;;;4.53;4.10;;;;;;;7.33;78.02;101211.50;6338117;28;20251;-75
2021/11/17 10:37:10;;;;;;;5.97;4.03;;;;;;;7.35;77.77;101198.56;6336750;28;20406;-75
2021/11/17 10:40:18;;;;;;;8.23;4.93;;;;;;;7.38;78.62;101200.94;6337731;28;20186;-75
2021/11/17 10:43:27;;;;;;;9.03;5.20;;;;;;;7.49;78.23;101188.75;6337673;28;20190;-76
2021/11/17 10:46:45;;;;;;;7.37;4.97;;;;;;;7.46;77.81;101187.25;6337093;28;20351;-76
2021/11/17 10:49:57;;;;;;;6.33;4.77;;;;;;;7.63;77.44;101173.50;6338330;28;20186;-76
2021/11/17 10:53:05;;;;;;;11.02;4.90;;;;;;;7.39;77.67;101180.91;6336727;28;20377;-76
2021/11/17 10:56:13;;;;;;;6.60;4.95;;;;;;;7.76;76.50;101173.63;6337926;28;20207;-76
2021/11/17 10:59:17;;;;;;;7.87;4.50;;;;;;;7.39;77.84;101175.47;6336472;28;20407;-75
2021/11/17 11:02:28;;;;;;;6.20;4.93;;;;;;;7.67;76.60;101170.19;6337909;28;20183;-76
2021/11/17 11:05:43;;;;;;;8.13;5.27;;;;;;;7.63;76.81;101168.88;6337485;28;20218;-76
2021/11/17 11:09:04;;;;;;;11.77;5.43;;;;;;;7.72;76.40;101158.75;6337767;28;20194;-76
2021/11/17 11:12:14;;;;;;;11.20;5.33;;;;;;;7.56;76.84;101163.38;6336636;28;20492;-76
2021/11/17 11:15:21;;;;;;;11.27;4.90;;;;;;;7.32;77.25;101160.94;6337615;28;20214;-76
2021/11/17 11:18:40;;;;;;;9.07;5.03;;;;;;;7.31;78.00;101159.28;6337761;28;20183;-76
2021/11/17 11:22:05;;;;;;;12.47;4.73;;;;;;;7.33;78.58;101153.66;6336121;28;20523;-76
2021/11/17 11:25:44;;;;;;;11.07;5.87;;;;;;;7.43;78.29;101157.78;6337501;28;20412;-76
2021/11/17 11:29:21;;;;;;;6.80;4.70;;;;;;;7.45;77.92;101150.28;6337136;28;20294;-76
2021/11/17 11:32:47;;;;;;;14.53;5.03;;;;;;;7.51;77.79;101137.81;6336029;28;20214;-76
2021/11/17 11:36:34;;;;;;;11.57;5.20;;;;;;;7.61;76.77;101142.94;6336964;28;20213;-76
2021/11/17 11:39:49;;;;;;;8.18;5.13;;;;;;;7.69;76.35;101140.13;6335866;28;20191;-76
2021/11/17 11:43:19;;;;;;;6.00;4.53;;;;;;;7.44;76.63;101135.03;6336907;28;20192;-76
2021/11/17 11:46:31;;;;;;;7.27;4.63;;;;;;;7.57;76.59;101120.78;6334267;28;20213;-74
2021/11/17 11:49:38;;;;;;;5.33;4.57;;;;;;;7.64;76.10;101115.41;6336362;28;20189;-75
2021/11/17 11:53:01;;;;;;;7.70;4.50;;;;;;;7.65;76.29;101119.81;6336959;28;20198;-76
2021/11/17 11:56:26;;;;;;;12.73;4.53;;;;;;;7.51;76.55;101106.09;6336747;28;20211;-74
2021/11/17 11:59:31;;;;;;;8.03;4.10;;;;;;;7.39;77.34;101099.47;6336596;28;20183;-75
2021/11/17 12:02:39;;;;;;;8.05;4.32;;;;;;;7.52;77.47;101088.75;6335408;28;20395;-75
2021/11/17 12:05:47;;;;;;;5.30;4.27;;;;;;;7.48;77.01;101084.75;6336046;28;20194;-75
2021/11/17 12:08:59;;;;;;;6.80;3.87;;;;;;;7.36;77.38;101080.84;6336629;28;20277;-75
2021/11/17 12:12:08;;;;;;;4.77;4.33;;;;;;;7.57;76.86;101077.31;6340994;28;20228;-75
2021/11/17 12:15:25;;;;;;;5.83;4.13;;;;;;;7.66;76.86;101080.75;6340618;28;20183;-75
2021/11/17 12:18:31;;;;;;;14.88;4.60;;;;;;;7.61;76.95;101081.34;6340032;28;20206;-75
2021/11/17 12:21:53;;;;;;;9.77;4.03;;;;;;;7.57;77.56;101072.72;6341027;28;20190;-75
2021/11/17 12:25:18;;;;;;;5.47;4.00;;;;;;;7.57;77.59;101072.72;6340411;28;20234;-75
2021/11/17 12:28:26;;;;;;;5.30;3.87;;;;;;;7.68;77.51;101073.28;6340798;28;20210;-75
2021/11/17 12:31:35;;;;;;;4.72;4.00;;;;;;;7.76;77.91;101064.97;6340690;28;20191;-75
2021/11/17 12:34:48;;;;;;;5.90;4.18;;;;;;;7.73;77.91;101065.38;6340915;28;20197;-75
2021/11/17 12:37:56;;;;;;;4.10;3.65;;;;;;;7.58;78.33;101058.13;6340727;28;20327;-75
2021/11/17 12:41:07;;;;;;;4.18;3.75;;;;;;;7.77;78.31;101055.81;6340787;28;20190;-75
2021/11/17 12:44:25;;;;;;;4.60;3.88;;;;;;;7.58;78.38;101052.69;6339861;28;20183;-76
2021/11/17 12:47:41;;;;;;;6.50;3.50;;;;;;;7.61;79.02;101040.59;6340554;28;20191;-75
2021/11/17 12:50:51;;;;;;;4.50;3.40;;;;;;;7.69;78.53;101036.91;6340555;28;20252;-75
2021/11/17 12:53:58;;;;;;;5.87;3.40;;;;;;;7.81;77.93;101035.34;6340688;28;20183;-76
2021/11/17 12:57:06;;;;;;;3.37;3.17;;;;;;;7.71;78.22;101029.41;6340906;28;20217;-76
2021/11/17 13:00:37;;;;;;;4.97;3.53;;;;;;;7.89;77.97;101029.81;6340698;28;20258;-76
2021/11/17 13:03:59;;;;;;;3.00;2.85;;;;;;;7.82;78.65;101031.63;6340311;28;20222;-75
2021/11/17 13:07:07;;;;;;;3.90;2.75;;;;;;;7.88;77.96;101036.28;6339290;28;20346;-76
2021/11/17 13:10:24;;;;;;;3.30;2.90;;;;;;;7.88;77.90;101020.00;6340622;28;20200;-76
2021/11/17 13:13:41;;;;;;;3.35;2.92;;;;;;;7.78;78.62;101011.31;6339954;28;20214;-76
2021/11/17 13:16:48;;;;;;;3.78;2.67;;;;;;;7.70;79.83;101017.72;6339187;28;20255;-75
2021/11/17 13:19:56;;;;;;;3.28;2.67;;;;;;;7.75;79.46;101014.44;6339100;28;20187;-75
2021/11/17 13:23:32;;;;;;;2.97;2.88;;;;;;;7.57;80.22;100996.69;6339717;28;20294;-75
2021/11/17 13:26:39;;;;;;;4.15;2.88;;;;;;;7.79;79.55;100999.41;6339783;28;20209;-75
2021/11/17 13:29:50;;;;;;;3.40;2.97;;;;;;;7.82;79.12;100999.03;6339192;28;20214;-75
2021/11/17 13:32:56;;;;;;;3.15;2.58;;;;;;;7.63;79.15;100988.84;6339328;28;20183;-75
2021/11/17 13:36:05;;;;;;;2.47;2.38;;;;;;;7.97;78.07;100986.19;6339761;28;20253;-75
2021/11/17 13:39:14;;;;;;;2.67;2.53;;;;;;;8.06;77.08;100995.91;6339616;28;20221;-75
2021/11/17 13:42:18;;;;;;;2.60;2.40;;;;;;;7.96;77.00;100984.53;6338211;28;20370;-75
2021/11/17 13:45:27;;;;;;;3.17;2.87;;;;;;;8.09;76.23;100985.47;6338428;28;20252;-75
2021/11/17 13:48:35;;;;;;;2.77;2.63;;;;;;;8.03;76.75;100971.84;6339504;28;20253;-75
2021/11/17 13:51:43;;;;;;;4.33;2.53;;;;;;;7.87;76.92;100969.41;6339244;28;20183;-75
2021/11/17 13:54:48;;;;;;;3.13;2.07;;;;;;;8.01;76.57;100966.56;6338090;28;20211;-75
2021/11/17 13:57:53;;;;;;;2.93;2.70;;;;;;;8.14;75.69;100960.41;6338389;28;20242;-75
2021/11/17 14:00:57;;;;;;;13.90;2.97;;;;;;;7.99;76.39;100956.94;6338768;28;20186;-75
2021/11/17 14:04:04;;;;;;;4.05;2.38;;;;;;;7.93;77.10;100964.03;6337912;28;20466;-75
2021/11/17 14:07:12;;;;;;;2.40;2.27;;;;;;;7.92;76.50;100956.06;6338774;28;20219;-75
2021/11/17 14:10:19;;;;;;;15.68;2.35;;;;;;;7.88;76.27;100954.78;6337684;28;20190;-75
2021/11/17 14:13:23;;;;;;;2.57;2.37;;;;;;;8.02;76.05;100956.56;6338868;28;20273;-75
2021/11/17 14:16:28;;;;;;;2.15;2.05;;;;;;;7.98;76.41;100955.28;6337383;28;20413;-75
2021/11/17 14:19:34;;;;;;;5.00;2.15;;;;;;;7.75;77.03;100943.81;6337510;28;20183;-75
2021/11/17 14:22:38;;;;;;;2.70;1.70;;;;;;;7.73;77.66;100935.03;6338174;28;20189;-75
2021/11/17 14:25:45;;;;;;;2.57;2.30;;;;;;;7.51;78.43;100932.31;6338288;28;20246;-75
2021/11/17 14:28:53;;;;;;;2.23;2.20;;;;;;;7.69;78.42;100931.00;6337216;28;20218;-75
2021/11/17 14:32:02;;;;;;;4.87;2.23;;;;;;;7.54;79.88;100931.94;6337454;28;20189;-75
2021/11/17 14:35:10;;;;;;;2.35;2.25;;;;;;;7.39;81.11;100933.88;6338182;28;20228;-75
2021/11/17 14:38:17;;;;;;;2.50;2.40;;;;;;;7.50;82.20;100919.78;6337056;28;20207;-75
2021/11/17 14:41:22;;;;;;;2.67;2.57;;;;;;;7.49;82.65;100918.13;6338304;28;20183;-75
2021/11/17 14:44:26;;;;;;;2.80;2.70;;;;;;;7.40;82.75;100913.84;6336857;28;20347;-75
2021/11/17 14:47:30;;;;;;;2.73;2.53;;;;;;;7.58;82.56;100911.50;6338215;28;20187;-75
2021/11/17 14:50:37;;;;;;;6.05;2.92;;;;;;;7.42;83.55;100911.75;6336985;28;20182;-75
2021/11/17 14:53:43;;;;;;;8.10;2.57;;;;;;;7.53;83.80;100913.09;6337845;28;20189;-75
2021/11/17 14:56:47;;;;;;;6.87;3.00;;;;;;;7.61;83.73;100914.84;6336849;28;20474;-75
2021/11/17 14:59:53;;;;;;;2.80;2.70;;;;;;;7.76;82.37;100913.72;6337716;28;20242;-75
2021/11/17 15:02:57;;;;;;;2.57;2.47;;;;;;;7.74;82.61;100904.09;6336562;28;20498;-75
2021/11/17 15:06:03;;;;;;;2.80;2.70;;;;;;;7.78;82.29;100889.09;6336515;28;20276;-74
2021/11/17 15:09:09;;;;;;;5.43;2.70;;;;;;;7.85;82.63;100889.97;6337925;28;20269;-74
2021/11/17 15:12:16;;;;;;;2.87;2.67;;;;;;;7.95;81.89;100896.75;6336160;28;20448;-74
2021/11/17 15:15:23;;;;;;;4.65;2.88;;;;;;;7.77;83.66;100882.81;6336180;28;20183;-75
2021/11/17 15:18:28;;;;;;;3.00;2.80;;;;;;;7.77;84.48;100884.69;6336034;28;20210;-75
2021/11/17 15:21:34;;;;;;;2.70;2.60;;;;;;;7.60;84.99;100886.03;6336958;28;20220;-74
2021/11/17 15:24:39;;;;;;;4.73;2.70;;;;;;;7.66;85.42;100863.50;6337402;28;20234;-75
2021/11/17 15:27:46;;;;;;;2.90;2.70;;;;;;;7.53;85.63;100859.66;6337510;28;20186;-75
2021/11/17 15:30:52;;;;;;;3.23;3.03;;;;;;;7.41;86.49;100866.66;6337568;28;20183;-75
2021/11/17 15:33:57;;;;;;;2.90;2.70;;;;;;;7.47;85.66;100857.72;6337471;28;20254;-75
2021/11/17 15:37:03;;;;;;;3.53;3.10;;;;;;;7.70;84.83;100848.50;6336120;28;20378;-75
2021/11/17 15:40:14;;;;;;;2.75;2.65;;;;;;;7.84;83.60;100844.84;6335753;28;20525;-75
2021/11/17 15:43:22;;;;;;;3.15;2.78;;;;;;;7.85;83.85;100841.09;6335991;28;20512;-75
2021/11/17 15:46:28;;;;;;;6.73;2.70;;;;;;;7.78;83.98;100840.22;6340254;28;20187;-75
2021/11/17 15:49:33;;;;;;;2.83;2.70;;;;;;;7.76;84.26;100832.25;6340747;28;20494;-74
2021/11/17 15:52:39;;;;;;;2.83;2.73;;;;;;;7.69;84.57;100841.38;6340695;28;20183;-74
2021/11/17 15:55:44;;;;;;;3.13;2.80;;;;;;;7.46;84.18;100842.47;6341759;28;20248;-76
2021/11/17 15:58:48;;;;;;;4.40;2.60;;;;;;;7.43;84.55;100832.00;6340505;28;20264;-74
2021/11/17 16:01:55;;;;;;;4.53;2.50;;;;;;;7.31;85.59;100833.59;6341763;28;20199;-75
2021/11/17 16:05:00;;;;;;;2.78;2.58;;;;;;;7.35;84.85;100834.88;6341823;28;20183;-75
2021/11/17 16:08:07;;;;;;;2.30;2.20;;;;;;;7.36;85.14;100823.00;6340456;28;20221;-74
2021/11/17 16:11:11;;;;;;;3.93;2.23;;;;;;;7.45;84.49;100824.50;6340996;28;20398;-74
2021/11/17 16:14:17;;;;;;;2.60;2.50;;;;;;;7.20;85.21;100809.69;6341015;28;20190;-74
2021/11/17 16:17:22;;;;;;;3.93;2.60;;;;;;;7.10;85.91;100803.75;6341436;28;20218;-74
2021/11/17 16:20:33;;;;;;;2.53;2.43;;;;;;;7.34;84.71;100808.78;6340022;28;20225;-74
2021/11/17 16:27:05;;;;;;;4.13;2.50;;;;;;;7.31;84.57;100806.44;6340268;28;20190;-75
2021/11/17 16:30:15;;;;;;;3.37;2.40;;;;;;;7.44;84.13;100801.13;6339864;28;20245;-75
2021/11/17 16:33:19;;;;;;;2.75;2.63;;;;;;;7.42;83.98;100795.03;6341175;28;20182;-74
2021/11/17 16:36:24;;;;;;;2.23;2.13;;;;;;;7.55;82.78;100787.00;6339773;28;20190;-75
2021/11/17 16:39:29;;;;;;;4.33;2.30;;;;;;;7.54;82.82;100790.75;6340611;28;20211;-75
2021/11/17 16:42:34;;;;;;;2.73;2.53;;;;;;;7.53;82.96;100794.50;6339645;28;20205;-75
2021/11/17 16:45:39;;;;;;;3.60;2.67;;;;;;;7.44;83.33;100790.28;6340147;28;20187;-75
2021/11/17 16:48:43;;;;;;;2.83;2.73;;;;;;;7.39;83.50;100775.63;6339758;28;20263;-75
2021/11/17 16:52:10;;;;;;;2.43;2.43;;;;;;;7.55;82.88;100784.28;6339258;28;20187;-74
2021/11/17 16:55:18;;;;;;;3.37;2.60;;;;;;;7.54;82.79;100774.47;6339431;28;20183;-74
2021/11/17 16:58:25;;;;;;;2.97;2.83;;;;;;;7.50;83.08;100778.59;6340198;28;20183;-75
2021/11/17 17:01:29;;;;;;;3.00;2.80;;;;;;;7.69;82.14;100773.50;6340406;28;20191;-74
2021/11/17 17:04:34;;;;;;;2.97;2.87;;;;;;;7.37;83.40;100773.06;6340108;28;20182;-74
2021/11/17 17:07:39;;;;;;;3.13;2.60;;;;;;;7.40;83.73;100774.56;6340191;28;20194;-74
2021/11/17 17:10:44;;;;;;;5.70;2.90;;;;;;;7.37;83.88;100756.78;6340198;28;20300;-74
2021/11/17 17:13:52;;;;;;;3.30;3.00;;;;;;;7.48;83.69;100764.41;6340626;28;20254;-74
2021/11/17 17:17:17;;;;;;;6.53;2.83;;;;;;;7.27;84.67;100761.72;6338889;28;20221;-74
2021/11/17 17:20:24;;;;;;;2.67;2.57;;;;;;;7.32;84.93;100761.97;6340111;28;20270;-75
2021/11/17 17:23:30;;;;;;;4.30;3.20;;;;;;;7.41;84.80;100754.53;6339031;28;20492;-75
2021/11/17 17:26:36;;;;;;;2.87;2.77;;;;;;;7.25;85.12;100755.66;6339843;28;20186;-75
2021/11/17 17:29:40;;;;;;;9.67;3.20;;;;;;;7.13;85.84;100749.13;6339045;28;20211;-75
2021/11/17 17:32:44;;;;;;;3.50;3.20;;;;;;;7.09;86.31;100753.22;6339985;28;20186;-75
2021/11/17 17:35:49;;;;;;;3.10;2.87;;;;;;;7.09;86.28;100747.81;6340050;28;20246;-74
2021/11/17 17:38:53;;;;;;;3.10;2.90;;;;;;;7.10;86.48;100738.66;6339700;28;20210;-75
2021/11/17 17:41:59;;;;;;;4.87;3.13;;;;;;;7.06;86.34;100737.34;6338274;28;20409;-76
2021/11/17 17:45:06;;;;;;;3.37;2.90;;;;;;;7.08;85.96;100739.88;6338154;28;20370;-75
2021/11/17 17:48:14;;;;;;;3.00;2.80;;;;;;;7.16;86.06;100732.44;6338069;28;20187;-75
2021/11/17 17:51:19;;;;;;;3.20;2.90;;;;;;;7.05;85.85;100730.25;6339398;28;20266;-75
2021/11/17 17:54:24;;;;;;;6.23;3.23;;;;;;;6.94;86.34;100730.78;6339375;28;20194;-75
2021/11/17 17:57:29;;;;;;;5.73;2.53;;;;;;;7.01;86.38;100726.25;6339368;28;20186;-74
2021/11/17 18:00:36;;;;;;;4.13;3.23;;;;;;;7.01;86.00;100728.16;6338580;28;20217;-76
2021/11/17 18:03:41;;;;;;;6.17;2.77;;;;;;;7.05;85.96;100718.56;6339560;28;20259;-75
2021/11/17 18:06:45;;;;;;;2.93;2.73;;;;;;;7.17;85.19;100706.97;6339067;28;20182;-75
2021/11/17 18:09:49;;;;;;;4.83;3.10;;;;;;;7.09;85.28;100714.44;6337494;28;20281;-76
2021/11/17 18:13:03;;;;;;;2.87;2.77;;;;;;;7.16;85.15;100709.91;6337603;28;20407;-76
2021/11/17 18:16:11;;;;;;;5.73;3.00;;;;;;;7.23;84.54;100708.06;6338700;28;20228;-75
2021/11/17 18:19:16;;;;;;;3.40;3.10;;;;;;;7.28;84.32;100711.00;6338031;28;20255;-75
2021/11/17 18:22:20;;;;;;;3.73;2.73;;;;;;;7.13;84.57;100700.28;6337476;28;20456;-76
2021/11/17 18:25:35;;;;;;;3.17;2.60;;;;;;;7.07;84.81;100697.50;6338086;28;20541;-76
2021/11/17 18:28:41;;;;;;;3.07;2.80;;;;;;;7.08;84.99;100702.75;6338532;28;20206;-76
2021/11/17 18:31:46;;;;;;;2.40;2.30;;;;;;;7.08;85.11;100686.47;6338545;28;20253;-75
2021/11/17 18:34:51;;;;;;;11.43;3.97;;;;;;;7.08;85.26;100697.31;6338870;28;20183;-76
2021/11/17 18:37:56;;;;;;;3.20;3.00;;;;;;;7.15;85.59;100692.78;6338312;28;20214;-75
2021/11/17 18:41:01;;;;;;;2.73;2.53;;;;;;;7.11;85.87;100690.66;6338539;28;20214;-76
2021/11/17 18:44:08;;;;;;;2.73;2.63;;;;;;;7.22;85.37;100687.38;6338335;28;20187;-75
2021/11/17 18:47:13;;;;;;;2.87;2.60;;;;;;;7.19;85.54;100677.75;6338351;28;20189;-75
2021/11/17 18:50:21;;;;;;;3.17;3.07;;;;;;;7.30;85.34;100674.50;6337218;28;20218;-75
2021/11/17 18:53:27;;;;;;;2.93;2.77;;;;;;;7.24;85.82;100658.19;6337949;28;20189;-75
2021/11/17 18:56:33;;;;;;;3.03;2.83;;;;;;;7.05;87.26;100670.59;6338331;28;20221;-74
2021/11/17 18:59:40;;;;;;;3.07;2.77;;;;;;;7.08;87.57;100659.34;6336690;28;20241;-74
2021/11/17 19:02:47;;;;;;;4.90;2.97;;;;;;;7.07;87.37;100646.81;6338516;28;20253;-75
2021/11/17 19:05:53;;;;;;;4.43;2.83;;;;;;;7.08;88.52;100656.63;6337954;28;20444;-75
2021/11/17 19:08:58;;;;;;;4.17;2.90;;;;;;;7.04;88.48;100641.75;6336628;28;20478;-75
2021/11/17 19:12:02;;;;;;;2.87;2.70;;;;;;;6.94;88.83;100635.84;6337740;28;20187;-75
2021/11/17 19:15:06;;;;;;;2.93;2.60;;;;;;;7.03;88.02;100639.25;6337935;28;20183;-75
2021/11/17 19:18:17;;;;;;;2.87;2.67;;;;;;;6.94;89.14;100641.28;6337909;28;20288;-75
2021/11/17 19:21:21;;;;;;;2.47;2.37;;;;;;;6.93;90.23;100650.47;6337632;28;20220;-76
2021/11/17 19:24:27;;;;;;;2.83;2.60;;;;;;;7.01;89.62;100631.31;6337168;28;20240;-75
2021/11/17 19:27:34;;;;;;;2.87;2.60;;;;;;;6.79;91.12;100627.84;6337500;28;20190;-75
2021/11/17 19:30:40;;;;;;;2.50;2.40;;;;;;;6.97;90.91;100619.19;6336823;28;20187;-75
2021/11/17 19:33:48;;;;;;;3.07;2.87;;;;;;;6.98;90.94;100620.88;6337602;28;20236;-75
2021/11/17 19:36:53;;;;;;;2.43;2.33;;;;;;;6.84;91.92;100614.53;6337672;28;20232;-75
2021/11/17 19:39:58;;;;;;;2.47;2.27;;;;;;;7.04;91.20;100603.78;6337079;28;20186;-75
2021/11/17 19:43:03;;;;;;;2.37;2.27;;;;;;;7.04;91.40;100592.09;6337345;28;20183;-78
2021/11/17 19:46:10;;;;;;;3.60;2.10;;;;;;;6.87;92.71;100602.44;6336892;28;20228;-75
2021/11/17 19:49:16;;;;;;;2.43;2.20;;;;;;;7.06;92.23;100604.41;6336145;28;20486;-74
2021/11/17 19:52:24;;;;;;;2.00;1.90;;;;;;;7.22;91.29;100606.81;6336144;28;20497;-74
2021/11/17 19:55:30;;;;;;;2.40;2.23;;;;;;;7.03;92.22;100596.72;6336264;28;20186;-75
2021/11/17 19:58:34;;;;;;;2.10;2.10;;;;;;;7.20;90.96;100598.06;6336059;28;20222;-75
